createdAt,value
2022-09-25T00:01:32.665Z,99.90
2022-09-25T00:04:00.208Z,99.90
2022-09-25T00:06:39.319Z,99.90
2022-09-25T00:09:10.132Z,99.90
2022-09-25T00:11:38.743Z,99.90
2022-09-25T00:14:05.943Z,99.90
2022-09-25T00:16:33.446Z,99.90
2022-09-25T00:19:27.450Z,99.90
2022-09-25T00:21:54.520Z,99.90
2022-09-25T00:24:22.569Z,99.90
2022-09-25T00:26:49.756Z,99.90
2022-09-25T00:29:20.641Z,99.90
2022-09-25T00:31:47.901Z,99.90
2022-09-25T00:34:15.162Z,99.90
2022-09-25T00:36:42.335Z,99.90
2022-09-25T00:39:10.046Z,99.90
2022-09-25T00:41:37.157Z,99.90
2022-09-25T00:45:01.282Z,99.90
2022-09-25T00:48:01.563Z,99.90
2022-09-25T00:50:28.573Z,99.90
2022-09-25T00:53:24.037Z,99.90
2022-09-25T00:55:52.425Z,99.90
2022-09-25T00:58:24.426Z,99.90
2022-09-25T01:00:53.807Z,99.90
2022-09-25T01:03:24.465Z,99.90
2022-09-25T01:05:52.955Z,99.90
2022-09-25T01:08:26.292Z,99.90
2022-09-25T01:10:55.050Z,99.90
2022-09-25T01:13:22.879Z,99.90
2022-09-25T01:16:17.302Z,99.90
2022-09-25T01:19:19.010Z,99.90
2022-09-25T01:22:21.019Z,99.90
2022-09-25T01:25:17.802Z,99.90
2022-09-25T01:28:21.411Z,99.90
2022-09-25T01:30:58.231Z,99.90
2022-09-25T01:33:41.888Z,99.90
2022-09-25T01:36:18.069Z,99.90
2022-09-25T01:38:53.473Z,99.90
2022-09-25T01:41:47.371Z,99.90
2022-09-25T01:45:03.297Z,99.90
2022-09-25T01:47:38.073Z,99.90
2022-09-25T01:50:16.298Z,99.90
2022-09-25T01:52:53.312Z,99.90
2022-09-25T01:55:38.820Z,99.90
2022-09-25T01:58:18.191Z,99.90
2022-09-25T02:00:55.605Z,99.90
2022-09-25T02:03:36.849Z,99.90
2022-09-25T02:06:10.255Z,99.90
2022-09-25T02:08:44.711Z,99.90
2022-09-25T02:11:12.723Z,99.90
2022-09-25T02:13:51.565Z,99.90
2022-09-25T02:16:46.836Z,99.90
2022-09-25T02:19:35.656Z,99.90
2022-09-25T02:22:20.123Z,99.90
2022-09-25T02:25:36.760Z,99.90
2022-09-25T02:28:04.177Z,99.90
2022-09-25T02:30:31.389Z,99.90
2022-09-25T02:32:58.757Z,99.90
2022-09-25T02:35:26.379Z,99.90
2022-09-25T02:37:57.419Z,99.90
2022-09-25T02:40:40.214Z,99.90
2022-09-25T02:43:56.620Z,99.90
2022-09-25T02:46:43.706Z,99.90
2022-09-25T02:49:28.723Z,99.90
2022-09-25T02:52:09.733Z,99.90
2022-09-25T02:54:53.193Z,99.90
2022-09-25T02:58:13.019Z,99.90
2022-09-25T03:00:43.257Z,99.90
2022-09-25T03:03:16.028Z,99.90
2022-09-25T03:05:44.238Z,99.90
2022-09-25T03:08:29.915Z,99.90
2022-09-25T03:10:58.697Z,99.90
2022-09-25T03:13:37.711Z,99.90
2022-09-25T03:16:30.587Z,99.90
2022-09-25T03:18:57.710Z,99.90
2022-09-25T03:21:24.912Z,99.90
2022-09-25T03:23:52.023Z,99.90
2022-09-25T03:26:19.210Z,99.90
2022-09-25T03:28:47.567Z,99.90
2022-09-25T03:31:14.801Z,99.90
2022-09-25T03:33:43.963Z,99.90
2022-09-25T03:36:21.028Z,99.90
2022-09-25T03:38:53.594Z,99.90
2022-09-25T03:41:22.891Z,99.90
2022-09-25T03:43:51.985Z,99.90
2022-09-25T03:46:23.196Z,99.90
2022-09-25T03:48:50.417Z,99.90
2022-09-25T03:51:18.895Z,99.90
2022-09-25T03:53:47.747Z,99.90
2022-09-25T03:56:20.390Z,99.90
2022-09-25T03:58:49.387Z,99.90
2022-09-25T04:01:19.663Z,99.90
2022-09-25T04:03:47.483Z,99.90
2022-09-25T04:06:24.730Z,99.90
2022-09-25T04:08:53.381Z,99.90
2022-09-25T04:11:24.208Z,99.90
2022-09-25T04:13:52.813Z,99.90
2022-09-25T04:16:21.476Z,99.90
2022-09-25T04:18:49.007Z,99.90
2022-09-25T04:21:17.072Z,99.90
2022-09-25T04:24:04.430Z,99.90
2022-09-25T04:26:32.218Z,99.90
2022-09-25T04:29:01.643Z,99.90
2022-09-25T04:31:30.022Z,99.90
2022-09-25T04:33:57.414Z,99.90
2022-09-25T04:36:24.631Z,99.90
2022-09-25T04:38:51.731Z,99.90
2022-09-25T04:41:20.258Z,99.90
2022-09-25T04:43:48.033Z,99.90
2022-09-25T04:46:21.770Z,99.90
2022-09-25T04:48:49.358Z,99.90
2022-09-25T04:51:16.639Z,99.90
2022-09-25T04:53:43.809Z,99.90
2022-09-25T04:56:15.759Z,99.90
2022-09-25T04:58:49.509Z,99.90
2022-09-25T05:01:19.903Z,99.90
2022-09-25T05:03:54.144Z,99.90
2022-09-25T05:06:22.825Z,99.90
2022-09-25T05:08:50.255Z,99.90
2022-09-25T05:11:17.424Z,99.90
2022-09-25T05:13:46.806Z,99.90
2022-09-25T05:16:14.315Z,99.90
2022-09-25T05:18:41.527Z,99.90
2022-09-25T05:21:08.783Z,99.90
2022-09-25T05:23:35.894Z,99.90
2022-09-25T05:26:03.455Z,99.90
2022-09-25T05:28:34.190Z,99.90
2022-09-25T05:31:03.820Z,99.90
2022-09-25T05:33:32.993Z,99.90
2022-09-25T05:36:05.433Z,99.90
2022-09-25T05:38:34.731Z,99.90
2022-09-25T05:41:07.359Z,99.90
2022-09-25T05:43:40.501Z,99.90
2022-09-25T05:46:08.286Z,99.90
2022-09-25T05:48:36.058Z,99.90
2022-09-25T05:51:04.181Z,99.90
2022-09-25T05:53:31.596Z,99.90
2022-09-25T05:56:05.395Z,99.90
2022-09-25T05:58:34.860Z,99.90
2022-09-25T06:01:05.062Z,99.90
2022-09-25T06:03:32.471Z,99.90
2022-09-25T06:06:00.959Z,99.90
2022-09-25T06:08:31.398Z,99.90
2022-09-25T06:11:02.427Z,99.90
2022-09-25T06:13:32.322Z,99.90
2022-09-25T06:15:59.488Z,99.90
2022-09-25T06:18:27.407Z,99.90
2022-09-25T06:21:02.738Z,99.90
2022-09-25T06:23:30.858Z,99.90
2022-09-25T06:26:07.076Z,99.90
2022-09-25T06:28:34.655Z,99.90
2022-09-25T06:31:03.870Z,99.90
2022-09-25T06:33:32.224Z,99.90
2022-09-25T06:36:02.029Z,99.90
2022-09-25T06:38:29.411Z,99.90
2022-09-25T06:41:00.414Z,99.90
2022-09-25T06:43:29.283Z,99.90
2022-09-25T06:46:02.642Z,99.90
2022-09-25T06:48:31.147Z,99.90
2022-09-25T06:51:00.841Z,99.90
2022-09-25T06:53:28.013Z,99.90
2022-09-25T06:55:59.657Z,99.90
2022-09-25T06:58:30.435Z,99.90
2022-09-25T07:00:57.646Z,99.90
2022-09-25T07:03:43.877Z,99.90
2022-09-25T07:06:15.114Z,99.90
2022-09-25T07:08:44.028Z,99.90
2022-09-25T07:11:16.745Z,99.90
2022-09-25T07:13:44.038Z,99.90
2022-09-25T07:16:16.430Z,99.90
2022-09-25T07:18:44.836Z,99.90
2022-09-25T07:21:15.586Z,99.90
2022-09-25T07:23:43.639Z,99.90
2022-09-25T07:26:21.910Z,99.90
2022-09-25T07:28:58.723Z,99.90
2022-09-25T07:31:29.977Z,99.90
2022-09-25T07:34:00.438Z,99.90
2022-09-25T07:36:27.629Z,99.90
2022-09-25T07:38:55.024Z,99.90
2022-09-25T07:41:23.849Z,99.90
2022-09-25T07:46:46.896Z,99.90
2022-09-25T07:49:14.522Z,99.90
2022-09-25T07:51:41.704Z,99.90
2022-09-25T07:54:09.108Z,99.90
2022-09-25T07:56:38.474Z,99.90
2022-09-25T07:59:05.795Z,99.90
2022-09-25T08:01:33.060Z,99.90
2022-09-25T08:04:00.404Z,99.90
2022-09-25T08:06:27.623Z,99.90
2022-09-25T08:08:54.847Z,99.90
2022-09-25T08:11:23.423Z,99.90
2022-09-25T08:13:50.852Z,99.90
2022-09-25T08:16:22.895Z,99.90
2022-09-25T08:18:50.917Z,99.90
2022-09-25T08:21:20.686Z,99.90
2022-09-25T08:23:53.186Z,99.90
2022-09-25T08:26:22.052Z,99.90
2022-09-25T08:28:50.841Z,99.90
2022-09-25T08:31:18.445Z,99.90
2022-09-25T08:33:49.006Z,99.90
2022-09-25T08:36:17.479Z,99.90
2022-09-25T08:38:45.768Z,99.90
2022-09-25T08:41:34.794Z,99.90
2022-09-25T08:44:19.398Z,99.90
2022-09-25T08:47:42.483Z,99.90
2022-09-25T08:50:16.736Z,99.90
2022-09-25T08:52:50.155Z,99.90
2022-09-25T08:55:59.744Z,99.90
2022-09-25T08:58:41.094Z,99.90
2022-09-25T09:01:20.453Z,99.90
2022-09-25T09:04:05.744Z,99.90
2022-09-25T09:06:34.696Z,99.90
2022-09-25T09:09:16.170Z,99.90
2022-09-25T09:11:56.384Z,99.90
2022-09-25T09:14:30.723Z,99.90
2022-09-25T09:17:10.925Z,99.90
2022-09-25T09:19:38.436Z,99.90
2022-09-25T09:22:14.778Z,99.90
2022-09-25T09:24:57.910Z,99.90
2022-09-25T09:27:50.448Z,99.90
2022-09-25T09:30:29.908Z,99.90
2022-09-25T09:33:39.270Z,99.90
2022-09-25T09:36:54.160Z,99.90
2022-09-25T09:39:51.007Z,99.90
2022-09-25T09:43:05.972Z,99.90
2022-09-25T09:45:54.429Z,99.90
2022-09-25T09:48:41.582Z,99.90
2022-09-25T09:51:44.758Z,99.90
2022-09-25T09:54:43.233Z,99.90
2022-09-25T09:57:26.488Z,99.90
2022-09-25T10:00:18.398Z,99.90
2022-09-25T10:03:14.993Z,99.90
2022-09-25T10:05:51.415Z,99.90
2022-09-25T10:08:18.607Z,99.90
2022-09-25T10:10:54.000Z,99.90
2022-09-25T10:13:33.024Z,99.90
2022-09-25T10:16:11.590Z,99.90
2022-09-25T10:19:20.046Z,99.90
2022-09-25T10:21:55.538Z,99.90
2022-09-25T10:25:02.240Z,99.90
2022-09-25T10:27:36.621Z,99.90
2022-09-25T10:30:09.903Z,99.90
2022-09-25T10:32:58.339Z,99.90
2022-09-25T10:35:29.761Z,99.90
2022-09-25T10:38:01.845Z,99.90
2022-09-25T10:40:39.272Z,99.90
2022-09-25T10:43:24.192Z,99.90
2022-09-25T10:46:14.399Z,98.50
2022-09-25T10:49:01.675Z,97.00
2022-09-25T10:51:29.563Z,96.50
2022-09-25T10:54:16.256Z,96.40
2022-09-25T10:56:44.215Z,94.90
2022-09-25T10:59:23.320Z,96.00
2022-09-25T11:01:54.729Z,95.40
2022-09-25T11:04:30.579Z,95.20
2022-09-25T11:07:07.777Z,94.40
2022-09-25T11:09:44.315Z,93.70
2022-09-25T11:12:23.717Z,93.50
2022-09-25T11:15:05.804Z,93.10
2022-09-25T11:17:41.383Z,91.80
2022-09-25T11:20:16.802Z,91.90
2022-09-25T11:23:04.946Z,90.40
2022-09-25T11:25:42.134Z,90.30
2022-09-25T11:28:35.500Z,91.40
2022-09-25T11:31:25.266Z,87.10
2022-09-25T11:34:14.774Z,86.00
2022-09-25T11:37:17.899Z,82.10
2022-09-25T11:40:11.025Z,81.70
2022-09-25T11:42:46.725Z,83.70
2022-09-25T11:45:26.600Z,85.40
2022-09-25T11:48:25.816Z,85.00
2022-09-25T11:51:07.404Z,83.20
2022-09-25T11:54:32.770Z,82.80
2022-09-25T11:57:27.702Z,84.70
2022-09-25T12:00:16.027Z,83.60
2022-09-25T12:03:27.054Z,85.50
2022-09-25T12:06:22.876Z,84.10
2022-09-25T12:09:20.890Z,82.80
2022-09-25T12:11:59.846Z,83.20
2022-09-25T12:14:31.928Z,84.20
2022-09-25T12:17:22.622Z,85.10
2022-09-25T12:19:59.504Z,84.80
2022-09-25T12:23:05.216Z,87.00
2022-09-25T12:26:11.949Z,87.80
2022-09-25T12:29:04.469Z,88.00
2022-09-25T12:32:32.813Z,86.40
2022-09-25T12:35:21.495Z,83.50
2022-09-25T12:38:03.756Z,80.80
2022-09-25T12:40:46.593Z,81.30
2022-09-25T12:43:28.353Z,82.60
2022-09-25T12:46:23.703Z,84.80
2022-09-25T12:49:23.430Z,83.50
2022-09-25T12:51:54.838Z,80.70
2022-09-25T12:54:51.061Z,81.50
2022-09-25T12:57:31.931Z,79.90
2022-09-25T13:00:19.275Z,78.60
2022-09-25T13:03:35.224Z,73.40
2022-09-25T13:06:25.201Z,72.70
2022-09-25T13:09:34.829Z,70.70
2022-09-25T13:12:24.970Z,71.40
2022-09-25T13:15:01.549Z,70.80
2022-09-25T13:17:31.459Z,68.40
2022-09-25T13:20:26.569Z,67.10
2022-09-25T13:23:16.204Z,65.70
2022-09-25T13:26:00.532Z,65.20
2022-09-25T13:28:37.802Z,64.70
2022-09-25T13:31:13.688Z,66.00
2022-09-25T13:34:13.191Z,66.50
2022-09-25T13:36:47.763Z,66.40
2022-09-25T13:40:00.092Z,66.30
2022-09-25T13:42:39.817Z,65.60
2022-09-25T13:45:37.484Z,65.00
2022-09-25T13:48:32.521Z,64.40
2022-09-25T13:51:22.545Z,65.10
2022-09-25T13:53:59.998Z,64.20
2022-09-25T13:56:42.127Z,64.20
2022-09-25T13:59:16.130Z,65.30
2022-09-25T14:01:54.902Z,65.00
2022-09-25T14:04:39.367Z,65.40
2022-09-25T14:07:23.169Z,65.30
2022-09-25T14:09:57.408Z,64.50
2022-09-25T14:12:42.768Z,63.60
2022-09-25T14:15:20.371Z,64.40
2022-09-25T14:17:53.070Z,66.10
2022-09-25T14:20:43.033Z,67.50
2022-09-25T14:23:33.244Z,68.80
2022-09-25T14:26:02.219Z,70.50
2022-09-25T14:28:33.727Z,71.80
2022-09-25T14:31:23.787Z,72.90
2022-09-25T14:34:46.577Z,73.00
2022-09-25T14:37:47.157Z,74.80
2022-09-25T14:40:36.805Z,75.40
2022-09-25T14:43:41.898Z,73.70
2022-09-25T14:46:23.730Z,74.10
2022-09-25T14:49:00.664Z,72.40
2022-09-25T14:51:40.901Z,72.80
2022-09-25T14:54:16.543Z,71.80
2022-09-25T14:57:08.979Z,69.40
2022-09-25T14:59:50.364Z,67.60
2022-09-25T15:02:45.061Z,67.10
2022-09-25T15:05:27.474Z,66.80
2022-09-25T15:07:59.527Z,67.20
2022-09-25T15:10:34.835Z,68.20
2022-09-25T15:13:19.202Z,68.10
2022-09-25T15:16:17.507Z,66.40
2022-09-25T15:18:54.341Z,66.50
2022-09-25T15:21:32.099Z,64.50
2022-09-25T15:24:17.565Z,62.10
2022-09-25T15:27:03.952Z,61.00
2022-09-25T15:29:38.448Z,60.70
2022-09-25T15:32:06.572Z,60.20
2022-09-25T15:34:34.281Z,60.30
2022-09-25T15:37:29.570Z,59.00
2022-09-25T15:40:00.979Z,58.50
2022-09-25T15:42:28.298Z,59.40
2022-09-25T15:44:58.550Z,59.60
2022-09-25T15:47:34.818Z,59.70
2022-09-25T15:50:13.534Z,60.10
2022-09-25T15:52:52.792Z,60.90
2022-09-25T15:55:21.845Z,61.10
2022-09-25T15:57:53.344Z,61.60
2022-09-25T16:00:44.279Z,62.60
2022-09-25T16:03:41.165Z,63.70
2022-09-25T16:06:16.236Z,65.00
2022-09-25T16:08:44.095Z,66.00
2022-09-25T16:11:26.271Z,67.20
2022-09-25T16:14:22.942Z,68.40
2022-09-25T16:16:53.123Z,69.10
2022-09-25T16:19:41.318Z,70.80
2022-09-25T16:22:23.952Z,72.70
2022-09-25T16:24:53.113Z,74.20
2022-09-25T16:27:34.703Z,75.60
2022-09-25T16:30:04.574Z,77.10
2022-09-25T16:32:32.440Z,77.70
2022-09-25T16:35:04.197Z,78.40
2022-09-25T16:37:36.365Z,79.10
2022-09-25T16:40:29.228Z,80.00
2022-09-25T16:42:58.930Z,81.10
2022-09-25T16:45:34.404Z,81.60
2022-09-25T16:48:28.484Z,81.90
2022-09-25T16:50:55.945Z,82.80
2022-09-25T16:53:27.655Z,83.20
2022-09-25T16:55:54.814Z,83.90
2022-09-25T16:58:24.326Z,84.50
2022-09-25T17:00:51.717Z,85.00
2022-09-25T17:03:19.193Z,85.00
2022-09-25T17:05:46.442Z,85.10
2022-09-25T17:08:25.204Z,85.50
2022-09-25T17:10:53.206Z,86.90
2022-09-25T17:13:28.206Z,87.40
2022-09-25T17:15:57.694Z,88.60
2022-09-25T17:18:25.178Z,89.40
2022-09-25T17:20:55.170Z,90.10
2022-09-25T17:23:25.193Z,90.70
2022-09-25T17:26:17.360Z,91.10
2022-09-25T17:28:44.595Z,91.60
2022-09-25T17:31:20.793Z,91.50
2022-09-25T17:33:55.389Z,92.00
2022-09-25T17:36:22.575Z,92.10
2022-09-25T17:38:50.044Z,92.20
2022-09-25T17:41:32.240Z,92.40
2022-09-25T17:44:00.158Z,92.90
2022-09-25T17:46:29.052Z,93.00
2022-09-25T17:48:57.195Z,93.30
2022-09-25T17:51:27.494Z,93.50
2022-09-25T17:53:56.496Z,94.00
2022-09-25T17:56:25.934Z,94.10
2022-09-25T17:58:56.911Z,94.60
2022-09-25T18:01:30.019Z,94.90
2022-09-25T18:04:00.477Z,95.20
2022-09-25T18:06:29.877Z,95.40
2022-09-25T18:08:57.661Z,95.70
2022-09-25T18:11:26.233Z,95.90
2022-09-25T18:13:57.086Z,96.20
2022-09-25T18:16:30.500Z,96.30
2022-09-25T18:19:16.756Z,96.90
2022-09-25T18:22:02.631Z,96.70
2022-09-25T18:24:30.096Z,97.20
2022-09-25T18:26:58.246Z,97.00
2022-09-25T18:29:25.929Z,97.40
2022-09-25T18:31:53.258Z,97.60
2022-09-25T18:34:21.914Z,97.90
2022-09-25T18:36:50.087Z,98.10
2022-09-25T18:39:20.461Z,98.20
2022-09-25T18:41:48.473Z,98.40
2022-09-25T18:44:17.965Z,98.70
2022-09-25T18:46:45.569Z,99.00
2022-09-25T18:49:12.836Z,99.10
2022-09-25T18:51:40.568Z,99.30
2022-09-25T18:54:15.850Z,99.50
2022-09-25T18:56:45.707Z,99.90
2022-09-25T18:59:13.491Z,99.90
2022-09-25T19:01:49.147Z,99.90
2022-09-25T19:04:22.629Z,99.90
2022-09-25T19:06:49.875Z,99.90
2022-09-25T19:09:28.353Z,99.90
2022-09-25T19:11:56.016Z,99.90
2022-09-25T19:14:48.217Z,99.90
2022-09-25T19:17:18.785Z,99.90
2022-09-25T19:19:46.279Z,99.90
2022-09-25T19:22:19.803Z,99.90
2022-09-25T19:24:49.095Z,99.90
2022-09-25T19:27:17.606Z,99.90
2022-09-25T19:29:45.816Z,99.90
2022-09-25T19:32:16.724Z,99.90
2022-09-25T19:34:47.205Z,99.90
2022-09-25T19:37:18.731Z,99.90
2022-09-25T19:40:15.274Z,99.90
2022-09-25T19:42:42.494Z,99.90
2022-09-25T19:45:12.337Z,99.90
2022-09-25T19:47:39.450Z,99.90
2022-09-25T19:50:10.973Z,99.90
2022-09-25T19:52:38.194Z,99.90
2022-09-25T19:55:05.888Z,99.90
2022-09-25T19:57:32.980Z,99.90
2022-09-25T20:00:00.560Z,99.90
2022-09-25T20:02:28.070Z,99.90
2022-09-25T20:04:55.134Z,99.90
2022-09-25T20:07:22.288Z,99.90
2022-09-25T20:09:49.575Z,99.90
2022-09-25T20:12:19.912Z,99.90
2022-09-25T20:14:50.057Z,99.90
2022-09-25T20:17:20.376Z,99.90
2022-09-25T20:19:50.699Z,99.90
2022-09-25T20:22:19.429Z,99.90
2022-09-25T20:24:49.190Z,99.90
2022-09-25T20:27:19.833Z,99.90
2022-09-25T20:29:50.153Z,99.90
2022-09-25T20:32:17.195Z,99.90
2022-09-25T20:34:44.418Z,99.90
2022-09-25T20:37:11.563Z,99.90
2022-09-25T20:39:38.774Z,99.90
2022-09-25T20:42:06.315Z,99.90
2022-09-25T20:44:33.590Z,99.90
2022-09-25T20:47:00.760Z,99.90
2022-09-25T20:49:27.872Z,99.90
2022-09-25T20:51:55.005Z,99.90
2022-09-25T20:54:28.668Z,99.90
2022-09-25T20:56:55.897Z,99.90
2022-09-25T20:59:24.903Z,99.90
2022-09-25T21:01:52.114Z,99.90
2022-09-25T21:04:19.481Z,99.90
2022-09-25T21:06:46.772Z,99.90
2022-09-25T21:09:26.868Z,99.90
2022-09-25T21:11:54.660Z,99.90
2022-09-25T21:14:28.229Z,99.90
2022-09-25T21:16:56.457Z,99.90
2022-09-25T21:19:23.802Z,99.90
2022-09-25T21:21:51.231Z,99.90
2022-09-25T21:24:23.578Z,99.90
2022-09-25T21:26:57.381Z,99.90
2022-09-25T21:29:24.453Z,99.90
2022-09-25T21:31:52.272Z,99.90
2022-09-25T21:34:20.061Z,99.90
2022-09-25T21:36:47.994Z,99.90
2022-09-25T21:39:15.922Z,99.90
2022-09-25T21:41:43.635Z,99.90
2022-09-25T21:44:16.790Z,99.90
2022-09-25T21:46:44.713Z,99.90
2022-09-25T21:49:20.297Z,99.90
2022-09-25T21:51:49.912Z,99.90
2022-09-25T21:54:18.170Z,99.90
2022-09-25T21:56:45.740Z,99.90
2022-09-25T21:59:13.844Z,99.90
2022-09-25T22:01:41.983Z,99.90
2022-09-25T22:04:13.449Z,99.90
2022-09-25T22:06:47.651Z,99.90
2022-09-25T22:09:22.091Z,99.90
2022-09-25T22:11:50.586Z,99.90
2022-09-25T22:14:20.032Z,99.90
2022-09-25T22:16:50.827Z,99.90
2022-09-25T22:19:19.769Z,99.90
2022-09-25T22:21:49.924Z,99.90
2022-09-25T22:24:17.971Z,99.90
2022-09-25T22:26:48.173Z,99.90
2022-09-25T22:29:17.052Z,99.90
2022-09-25T22:31:44.950Z,99.90
2022-09-25T22:34:25.616Z,99.90
2022-09-25T22:36:59.100Z,99.90
2022-09-25T22:39:28.877Z,99.90
2022-09-25T22:41:56.849Z,99.90
2022-09-25T22:44:24.879Z,99.90
2022-09-25T22:46:52.144Z,99.90
2022-09-25T22:49:19.392Z,99.90
2022-09-25T22:51:46.596Z,99.90
2022-09-25T22:54:14.767Z,99.90
2022-09-25T22:56:43.071Z,99.90
2022-09-25T22:59:16.287Z,99.90
2022-09-25T23:02:01.548Z,99.90
2022-09-25T23:04:28.780Z,99.90
2022-09-25T23:06:55.890Z,99.90
2022-09-25T23:09:26.177Z,99.90
2022-09-25T23:11:56.633Z,99.90
2022-09-25T23:14:30.865Z,99.90
2022-09-25T23:16:58.587Z,99.90
2022-09-25T23:19:26.568Z,99.90
2022-09-25T23:21:55.010Z,99.90
2022-09-25T23:24:22.961Z,99.90
2022-09-25T23:26:51.569Z,99.90
2022-09-25T23:29:20.995Z,99.90
2022-09-25T23:31:50.169Z,99.90
2022-09-25T23:34:17.893Z,99.90
2022-09-25T23:36:44.979Z,99.90
2022-09-25T23:39:18.152Z,99.90
2022-09-25T23:41:45.968Z,99.90
2022-09-25T23:44:13.651Z,99.90
2022-09-25T23:46:43.165Z,99.90
2022-09-25T23:49:11.793Z,99.90
2022-09-25T23:51:39.503Z,99.90
2022-09-25T23:54:07.676Z,99.90
2022-09-25T23:56:35.831Z,99.90
2022-09-25T23:59:04.690Z,99.90
